createdAt,value
2018-09-17T04:45:36.459Z,21.40
2018-09-17T04:48:06.460Z,11.10
2018-09-17T05:14:47.091Z,11.10
2018-09-17T05:20:17.647Z,11.10
2018-09-17T05:22:50.076Z,11.10
2018-09-17T05:25:25.873Z,11.20
2018-09-17T05:30:41.684Z,11.30
2018-09-17T05:33:16.106Z,11.40
2018-09-17T05:35:46.947Z,11.50
2018-09-17T05:38:18.728Z,11.50
2018-09-17T05:40:50.866Z,11.60
2018-09-17T05:43:27.467Z,11.60
2018-09-17T05:46:02.276Z,11.70
2018-09-17T05:48:38.555Z,11.80
2018-09-17T05:53:59.934Z,11.90
2018-09-17T06:05:06.754Z,12.40
2018-09-17T06:10:41.372Z,12.60
2018-09-17T06:22:15.813Z,13.40
2018-09-17T06:33:43.935Z,14.00
2018-09-17T06:42:21.621Z,14.60
2018-09-17T06:48:32.036Z,15.00
2018-09-17T06:51:43.996Z,15.10
2018-09-17T06:55:21.198Z,15.40
2018-09-17T08:43:17.494Z,16.70
2018-09-17T08:46:13.431Z,19.30
2018-09-17T08:49:17.913Z,19.40
2018-09-17T08:52:24.368Z,19.50
2018-09-17T10:23:36.137Z,22.20
2018-09-17T10:29:18.000Z,22.60
2018-09-17T10:31:48.249Z,22.70
2018-09-17T10:34:18.664Z,22.70
2018-09-17T10:36:49.121Z,22.70
2018-09-17T10:39:18.930Z,22.80
2018-09-17T10:41:52.392Z,22.80
2018-09-17T10:44:27.088Z,23.00
2018-09-17T10:46:57.043Z,23.00
2018-09-17T10:49:26.742Z,23.00
2018-09-17T10:51:59.032Z,23.00
2018-09-17T10:54:31.516Z,23.10
2018-09-17T10:57:02.294Z,23.10
2018-09-17T10:59:31.753Z,23.10
2018-09-17T11:02:01.302Z,23.20
2018-09-17T11:04:33.224Z,23.30
2018-09-17T11:07:03.306Z,23.30
2018-09-17T11:09:35.268Z,23.40
2018-09-17T11:12:04.935Z,23.40
2018-09-17T11:14:37.648Z,23.50
2018-09-17T11:17:08.137Z,23.50
2018-09-17T11:19:40.021Z,23.50
2018-09-17T11:22:11.766Z,23.60
2018-09-17T11:24:46.125Z,23.70
2018-09-17T11:27:19.631Z,23.80
2018-09-17T11:29:49.173Z,23.90
2018-09-17T11:32:20.602Z,24.00
2018-09-17T11:34:52.569Z,24.20
2018-09-17T11:37:22.016Z,24.30
2018-09-17T11:39:54.258Z,24.40
2018-09-17T11:42:23.607Z,24.50
2018-09-17T11:44:53.896Z,24.50
2018-09-17T11:47:26.146Z,24.60
2018-09-17T11:49:55.869Z,24.60
2018-09-17T11:52:26.322Z,24.70
2018-09-17T11:54:55.795Z,24.80
2018-09-17T11:57:26.877Z,24.90
2018-09-17T11:59:56.312Z,24.80
2018-09-17T12:02:35.343Z,24.90
2018-09-17T12:07:58.715Z,25.10
2018-09-17T12:10:28.117Z,25.10
2018-09-17T12:12:58.494Z,25.10
2018-09-17T12:15:29.051Z,25.10
2018-09-17T12:17:59.147Z,25.10
2018-09-17T12:20:28.409Z,25.10
2018-09-17T12:22:59.072Z,25.20
2018-09-17T12:25:28.512Z,25.40
2018-09-17T12:27:57.713Z,25.30
2018-09-17T12:30:27.175Z,25.30
2018-09-17T12:32:59.770Z,25.30
2018-09-17T12:35:29.354Z,25.40
2018-09-17T12:37:59.072Z,25.50
2018-09-17T12:40:29.136Z,25.50
2018-09-17T12:42:59.532Z,25.60
2018-09-17T12:45:28.861Z,25.70
2018-09-17T12:47:58.372Z,25.80
2018-09-17T12:50:27.863Z,25.80
2018-09-17T12:52:58.462Z,25.80
2018-09-17T12:55:27.943Z,25.80
2018-09-17T12:57:58.238Z,25.80
2018-09-17T13:00:27.588Z,25.90
2018-09-17T13:02:57.525Z,26.00
2018-09-17T13:05:28.669Z,26.20
2018-09-17T13:07:57.914Z,26.30
2018-09-17T13:10:27.496Z,26.30
2018-09-17T13:12:57.478Z,26.30
2018-09-17T13:15:27.430Z,26.50
2018-09-17T13:17:56.933Z,26.70
2018-09-17T13:20:26.358Z,26.90
2018-09-17T13:22:55.944Z,27.10
2018-09-17T13:25:25.678Z,27.40
2018-09-17T13:27:55.151Z,27.80
2018-09-17T13:30:24.608Z,28.30
2018-09-17T13:32:54.197Z,28.70
2018-09-17T13:35:23.737Z,29.20
2018-09-17T13:37:52.978Z,29.50
2018-09-17T13:40:23.193Z,29.90
2018-09-17T13:42:52.643Z,30.10
2018-09-17T13:45:22.032Z,30.80
2018-09-17T13:47:51.612Z,31.60
2018-09-17T13:50:21.078Z,32.60
2018-09-17T13:52:50.829Z,33.40
2018-09-17T13:55:21.809Z,33.90
2018-09-17T13:57:54.202Z,34.10
2018-09-17T14:00:24.541Z,34.70
2018-09-17T14:02:56.101Z,35.40
2018-09-17T14:05:25.662Z,36.20
2018-09-17T14:07:56.386Z,36.60
2018-09-17T14:10:25.717Z,36.50
2018-09-17T14:12:56.049Z,36.50
2018-09-17T14:15:25.672Z,36.80
2018-09-17T14:17:55.053Z,37.60
2018-09-17T14:20:25.232Z,37.60
2018-09-17T14:22:56.030Z,37.70
2018-09-17T14:25:25.655Z,37.90
2018-09-17T14:27:56.484Z,37.90
2018-09-17T14:30:25.723Z,38.20
2018-09-17T14:33:07.413Z,38.70
2018-09-17T14:35:37.628Z,39.20
2018-09-17T14:38:06.752Z,39.00
2018-09-17T14:40:36.130Z,39.40
2018-09-17T14:43:05.629Z,39.70
2018-09-17T14:45:34.819Z,39.90
2018-09-17T14:48:04.333Z,40.10
2018-09-17T14:50:33.483Z,40.60
2018-09-17T14:53:03.826Z,40.70
2018-09-17T14:55:33.270Z,40.90
2018-09-17T14:58:02.700Z,41.40
2018-09-17T15:00:31.883Z,41.70
2018-09-17T15:03:03.865Z,42.00
2018-09-17T15:05:33.341Z,42.00
2018-09-17T15:08:02.652Z,41.70
2018-09-17T15:10:32.212Z,41.90
2018-09-17T15:13:02.358Z,42.00
2018-09-17T15:15:31.877Z,41.90
2018-09-17T15:18:00.882Z,42.10
2018-09-17T15:20:30.510Z,42.50
2018-09-17T15:23:00.010Z,42.30
2018-09-17T15:25:29.679Z,42.50
2018-09-17T15:27:59.428Z,42.60
2018-09-17T15:30:28.959Z,42.60
2018-09-17T15:33:00.535Z,42.60
2018-09-17T15:35:31.541Z,42.20
2018-09-17T15:38:01.134Z,41.00
2018-09-17T15:40:30.555Z,39.40
2018-09-17T15:43:02.579Z,37.80
2018-09-17T15:45:32.319Z,36.20
2018-09-17T15:48:01.853Z,34.80
2018-09-17T15:50:31.357Z,33.10
2018-09-17T15:53:14.939Z,32.30
2018-09-17T15:55:45.557Z,31.10
2018-09-17T15:58:15.062Z,30.10
2018-09-17T16:00:44.481Z,29.40
2018-09-17T16:03:14.929Z,28.70
2018-09-17T16:05:44.613Z,28.20
2018-09-17T16:08:15.230Z,27.70
2018-09-17T16:10:45.792Z,27.30
2018-09-17T16:13:16.537Z,27.10
2018-09-17T16:15:47.272Z,26.80
2018-09-17T16:18:17.223Z,26.60
2018-09-17T16:20:48.391Z,26.40
2018-09-17T16:23:18.727Z,26.20
2018-09-17T16:25:48.478Z,26.10
2018-09-17T16:28:18.265Z,25.90
2018-09-17T16:30:49.339Z,25.70
2018-09-17T16:33:20.533Z,25.60
2018-09-17T16:38:49.242Z,25.30
2018-09-17T16:41:23.535Z,25.20
2018-09-17T16:44:02.026Z,25.10
2018-09-17T16:46:40.557Z,25.00
2018-09-17T16:49:10.891Z,24.90
2018-09-17T16:54:18.096Z,24.80
2018-09-17T16:56:48.453Z,24.40
2018-09-17T16:59:18.182Z,21.70
2018-09-17T17:17:37.650Z,22.10
2018-09-17T17:20:28.574Z,21.90
2018-09-17T17:26:13.204Z,21.20
2018-09-17T17:32:26.658Z,20.70
2018-09-17T17:53:37.714Z,20.10
2018-09-17T17:56:26.513Z,18.90
2018-09-17T17:59:07.733Z,18.80
2018-09-17T18:01:56.599Z,18.70
2018-09-17T18:08:49.620Z,18.50
2018-09-17T18:21:34.966Z,17.90
2018-09-17T18:25:00.915Z,17.70
2018-09-17T18:27:56.105Z,17.60
2018-09-17T18:30:51.580Z,17.50
2018-09-17T18:33:35.111Z,17.40
2018-09-17T18:36:26.107Z,17.20
2018-09-17T18:41:53.068Z,17.00
2018-09-17T18:50:25.134Z,16.90
2018-09-17T18:53:04.449Z,16.70
2018-09-17T18:55:47.892Z,16.60
2018-09-17T18:58:33.447Z,16.50
2018-09-17T19:01:05.628Z,16.40
2018-09-17T19:03:42.185Z,16.30
2018-09-17T19:06:13.885Z,16.30
2018-09-17T19:08:45.936Z,16.20
2018-09-17T19:11:21.624Z,16.20
2018-09-17T19:13:58.473Z,16.10
2018-09-17T19:16:37.286Z,16.10
2018-09-17T19:19:17.161Z,16.10
2018-09-17T19:25:22.004Z,15.80
2018-09-17T19:28:08.406Z,15.80
2018-09-17T19:31:00.829Z,15.70
2018-09-17T19:37:22.720Z,15.50
2018-09-17T19:40:06.235Z,15.40
2018-09-17T19:42:36.233Z,15.30
2018-09-17T19:45:12.319Z,15.20
2018-09-17T19:47:43.693Z,15.20
2018-09-17T19:50:20.306Z,15.10
2018-09-17T19:52:53.320Z,15.10
2018-09-17T19:55:23.809Z,15.00
2018-09-17T19:57:59.363Z,14.90
2018-09-17T20:00:35.876Z,14.90
2018-09-17T20:03:06.918Z,14.90
2018-09-17T20:05:42.828Z,14.80
2018-09-17T20:08:14.183Z,14.70
2018-09-17T20:10:44.781Z,14.70
2018-09-17T20:13:18.920Z,14.70
2018-09-17T20:15:52.172Z,14.60
2018-09-17T20:18:22.420Z,14.60
2018-09-17T20:20:56.170Z,14.50
2018-09-17T20:23:30.432Z,14.40
2018-09-17T20:26:05.452Z,14.40
2018-09-17T20:28:37.814Z,14.50
2018-09-17T20:31:11.755Z,14.40
2018-09-17T20:33:47.039Z,14.30
2018-09-17T20:36:17.753Z,14.30
2018-09-17T20:38:47.035Z,14.20
2018-09-17T20:41:20.077Z,14.20
2018-09-17T20:43:50.437Z,14.20
2018-09-17T20:46:20.956Z,14.20
2018-09-17T20:49:07.107Z,14.10
2018-09-17T20:51:38.601Z,14.00
2018-09-17T20:54:09.482Z,13.90
2018-09-17T20:56:39.101Z,13.90
2018-09-17T20:59:10.140Z,13.80
2018-09-17T21:01:40.716Z,13.70
2018-09-17T21:04:10.792Z,13.70
2018-09-17T21:06:41.415Z,13.70
2018-09-17T21:09:13.127Z,13.60
2018-09-17T21:11:42.920Z,13.70
2018-09-17T21:14:13.276Z,13.70
2018-09-17T21:16:42.856Z,13.60
2018-09-17T21:19:12.540Z,13.60
2018-09-17T21:21:43.586Z,13.60
2018-09-17T21:24:13.534Z,13.60
2018-09-17T21:26:43.153Z,13.60
2018-09-17T21:29:12.360Z,13.50
2018-09-17T21:31:41.867Z,13.50
2018-09-17T21:34:15.254Z,13.40
2018-09-17T21:36:44.914Z,13.40
2018-09-17T21:39:21.472Z,13.50
2018-09-17T21:41:51.848Z,13.30
2018-09-17T21:44:22.341Z,13.20
2018-09-17T21:46:51.847Z,13.20
2018-09-17T21:49:21.486Z,13.20
2018-09-17T21:51:50.933Z,13.30
2018-09-17T21:54:32.137Z,13.30
2018-09-17T21:57:02.595Z,13.30
2018-09-17T21:59:32.387Z,13.20
2018-09-17T22:02:08.260Z,11.30
2018-09-17T22:04:38.312Z,13.10
2018-09-17T22:07:07.733Z,13.10
2018-09-17T22:09:38.056Z,13.10
2018-09-17T22:12:07.826Z,13.00
2018-09-17T22:14:38.139Z,13.10
2018-09-17T22:17:08.240Z,13.00
2018-09-17T22:19:37.899Z,13.00
2018-09-17T22:22:08.576Z,12.90
2018-09-17T22:24:38.136Z,12.90
2018-09-17T22:27:08.250Z,12.90
2018-09-17T22:29:38.209Z,12.70
2018-09-17T22:32:08.305Z,12.70
2018-09-17T22:34:43.328Z,12.70
2018-09-17T22:37:13.870Z,12.70
2018-09-17T22:39:43.980Z,12.70
2018-09-17T22:42:16.106Z,12.60
2018-09-17T22:44:47.643Z,12.50
2018-09-17T22:47:18.728Z,12.50
2018-09-17T22:49:48.354Z,12.50
2018-09-17T22:52:18.869Z,12.40
2018-09-17T22:54:49.450Z,12.40
2018-09-17T22:57:19.022Z,12.50
2018-09-17T22:59:48.943Z,12.50
2018-09-17T23:02:20.816Z,12.50
2018-09-17T23:04:53.865Z,12.50
2018-09-17T23:07:25.991Z,12.60
2018-09-17T23:09:55.462Z,12.60
2018-09-17T23:12:25.889Z,12.50
2018-09-17T23:14:55.312Z,12.40
2018-09-17T23:17:25.095Z,12.30
2018-09-17T23:19:55.916Z,12.20
2018-09-17T23:22:26.480Z,12.20
2018-09-17T23:24:55.695Z,12.20
2018-09-17T23:27:25.073Z,12.20
2018-09-17T23:29:54.448Z,12.30
2018-09-17T23:32:24.058Z,12.40
2018-09-17T23:34:53.905Z,12.40
2018-09-17T23:37:23.101Z,12.40
2018-09-17T23:39:52.613Z,12.40
2018-09-17T23:42:22.028Z,12.40
2018-09-17T23:44:53.250Z,12.50
2018-09-17T23:47:22.689Z,12.60
2018-09-17T23:49:52.063Z,12.50
2018-09-17T23:52:21.581Z,12.50
2018-09-17T23:54:50.866Z,12.40
2018-09-17T23:57:20.218Z,12.30
2018-09-17T23:59:49.557Z,12.20
